createdAt,value
2023-06-10T00:02:07.110Z,99869.72
2023-06-10T00:04:34.315Z,99876.22
2023-06-10T00:07:02.063Z,99875.03
2023-06-10T00:09:30.128Z,99877.69
2023-06-10T00:12:00.884Z,99876.66
2023-06-10T00:14:27.836Z,99880.50
2023-06-10T00:16:54.768Z,99878.69
2023-06-10T00:19:26.658Z,99869.78
2023-06-10T00:21:53.732Z,99877.25
2023-06-10T00:24:20.857Z,99881.59
2023-06-10T00:26:47.816Z,99877.34
2023-06-10T00:29:15.681Z,99872.47
2023-06-10T00:31:42.868Z,99874.69
2023-06-10T00:34:09.876Z,99880.31
2023-06-10T00:36:37.064Z,99885.50
2023-06-10T00:39:05.665Z,99876.00
2023-06-10T00:41:34.967Z,99870.19
2023-06-10T00:44:02.430Z,99869.94
2023-06-10T00:46:30.166Z,99867.72
2023-06-10T00:48:57.678Z,99875.94
2023-06-10T00:51:33.481Z,99870.13
2023-06-10T00:54:00.748Z,99868.31
2023-06-10T00:56:29.565Z,99869.06
2023-06-10T00:58:57.645Z,99876.63
2023-06-10T01:01:26.593Z,99869.38
2023-06-10T01:03:54.693Z,99857.09
2023-06-10T01:06:38.512Z,99868.63
2023-06-10T01:09:17.295Z,99865.91
2023-06-10T01:12:09.901Z,99867.06
2023-06-10T01:14:46.000Z,99871.06
2023-06-10T01:17:17.870Z,99880.72
2023-06-10T01:19:45.758Z,99870.59
2023-06-10T01:22:16.929Z,99878.69
2023-06-10T01:24:44.539Z,99883.22
2023-06-10T01:27:16.332Z,99883.00
2023-06-10T01:29:57.174Z,99877.16
2023-06-10T01:32:43.592Z,99875.66
2023-06-10T01:35:11.429Z,99882.31
2023-06-10T01:37:41.989Z,99888.75
2023-06-10T01:40:10.354Z,99888.75
2023-06-10T01:42:37.772Z,99895.38
2023-06-10T01:45:07.868Z,99892.88
2023-06-10T01:47:38.180Z,99900.75
2023-06-10T01:50:05.752Z,99892.69
2023-06-10T01:52:32.691Z,99888.75
2023-06-10T01:54:59.683Z,99886.13
2023-06-10T01:57:27.730Z,99890.31
2023-06-10T01:59:54.732Z,99887.19
2023-06-10T02:02:23.120Z,99889.63
2023-06-10T02:04:50.281Z,99885.00
2023-06-10T02:07:19.601Z,99885.97
2023-06-10T02:09:46.578Z,99880.88
2023-06-10T02:12:15.122Z,99884.16
2023-06-10T02:14:44.404Z,99885.47
2023-06-10T02:17:13.878Z,99890.41
2023-06-10T02:19:43.632Z,99881.94
2023-06-10T02:22:11.231Z,99884.22
2023-06-10T02:24:38.800Z,99902.16
2023-06-10T02:27:08.897Z,99899.28
2023-06-10T02:29:36.423Z,99887.97
2023-06-10T02:32:04.370Z,99884.28
2023-06-10T02:34:31.456Z,99892.84
2023-06-10T02:36:58.425Z,99891.97
2023-06-10T02:39:26.495Z,99892.28
2023-06-10T02:41:53.470Z,99903.66
2023-06-10T02:44:21.549Z,99904.97
2023-06-10T02:46:48.569Z,99905.25
2023-06-10T02:49:15.610Z,99910.28
2023-06-10T02:51:46.092Z,99924.28
2023-06-10T02:54:13.081Z,99923.59
2023-06-10T02:56:42.948Z,99923.78
2023-06-10T02:59:09.982Z,99929.72
2023-06-10T03:01:38.388Z,99925.28
2023-06-10T03:04:06.749Z,99930.28
2023-06-10T03:06:36.268Z,99917.47
2023-06-10T03:09:08.563Z,99918.72
2023-06-10T03:11:35.510Z,99919.91
2023-06-10T03:14:02.593Z,99925.06
2023-06-10T03:16:31.529Z,99923.72
2023-06-10T03:18:59.770Z,99923.06
2023-06-10T03:21:28.706Z,99917.34
2023-06-10T03:23:56.122Z,99921.91
2023-06-10T03:26:28.472Z,99916.38
2023-06-10T03:28:56.546Z,99914.25
2023-06-10T03:31:23.521Z,99914.41
2023-06-10T03:33:50.609Z,99925.09
2023-06-10T03:36:18.728Z,99925.72
2023-06-10T03:38:45.635Z,99924.88
2023-06-10T03:41:12.619Z,99926.03
2023-06-10T03:43:41.667Z,99931.25
2023-06-10T03:46:09.970Z,99924.75
2023-06-10T03:48:37.527Z,99940.47
2023-06-10T03:51:04.577Z,99933.63
2023-06-10T03:53:31.517Z,99941.41
2023-06-10T03:55:58.725Z,99936.94
2023-06-10T03:58:25.940Z,99935.25
2023-06-10T04:00:54.575Z,99939.16
2023-06-10T04:03:22.431Z,99933.88
2023-06-10T04:05:51.238Z,99933.13
2023-06-10T04:08:18.270Z,99925.91
2023-06-10T04:10:45.230Z,99930.03
2023-06-10T04:13:12.184Z,99928.94
2023-06-10T04:15:39.416Z,99927.66
2023-06-10T04:18:07.040Z,99928.88
2023-06-10T04:20:34.136Z,99930.09
2023-06-10T04:23:02.254Z,99931.09
2023-06-10T04:25:29.727Z,99940.81
2023-06-10T04:27:56.894Z,99948.31
2023-06-10T04:30:24.035Z,99942.97
2023-06-10T04:32:50.965Z,99949.47
2023-06-10T04:35:18.038Z,99940.22
2023-06-10T04:37:44.973Z,99947.25
2023-06-10T04:40:12.252Z,99950.75
2023-06-10T04:42:39.237Z,99943.47
2023-06-10T04:45:07.721Z,99948.34
2023-06-10T04:47:36.284Z,99944.09
2023-06-10T04:50:05.500Z,99950.78
2023-06-10T04:52:32.433Z,99959.13
2023-06-10T04:54:59.777Z,99962.16
2023-06-10T04:57:27.243Z,99955.84
2023-06-10T04:59:54.836Z,99957.84
2023-06-10T05:02:22.324Z,99958.78
2023-06-10T05:04:50.517Z,99956.91
2023-06-10T05:07:17.469Z,99962.94
2023-06-10T05:09:44.400Z,99958.03
2023-06-10T05:12:11.516Z,99962.50
2023-06-10T05:14:38.491Z,99959.69
2023-06-10T05:17:07.160Z,99964.41
2023-06-10T05:19:34.344Z,99968.31
2023-06-10T05:22:01.284Z,99967.53
2023-06-10T05:24:29.653Z,99968.47
2023-06-10T05:26:56.583Z,99965.69
2023-06-10T05:29:24.124Z,99965.53
2023-06-10T05:31:51.075Z,99978.84
2023-06-10T05:34:18.201Z,99968.44
2023-06-10T05:36:45.353Z,99975.06
2023-06-10T05:39:13.301Z,99969.41
2023-06-10T05:41:40.435Z,99970.94
2023-06-10T05:44:07.406Z,99971.28
2023-06-10T05:46:34.442Z,99967.91
2023-06-10T05:49:01.439Z,99976.19
2023-06-10T05:51:29.524Z,99964.69
2023-06-10T05:53:57.559Z,99969.25
2023-06-10T05:56:24.925Z,99969.63
2023-06-10T05:58:52.631Z,99975.22
2023-06-10T06:01:22.708Z,99963.72
2023-06-10T06:03:50.422Z,99958.31
2023-06-10T06:06:17.642Z,99957.66
2023-06-10T06:08:44.628Z,99960.81
2023-06-10T06:11:11.626Z,99961.03
2023-06-10T06:13:38.557Z,99958.22
2023-06-10T06:16:05.648Z,99952.91
2023-06-10T06:18:35.876Z,99952.03
2023-06-10T06:21:03.645Z,99953.97
2023-06-10T06:23:31.566Z,99957.56
2023-06-10T06:25:58.649Z,99952.03
2023-06-10T06:28:30.183Z,99954.56
2023-06-10T06:30:58.845Z,99954.81
2023-06-10T06:33:27.392Z,99959.75
2023-06-10T06:35:54.405Z,99954.13
2023-06-10T06:38:21.722Z,99951.38
2023-06-10T06:40:49.496Z,99954.91
2023-06-10T06:43:17.556Z,99954.44
2023-06-10T06:45:44.490Z,99951.66
2023-06-10T06:48:11.951Z,99956.06
2023-06-10T06:50:39.139Z,99951.34
2023-06-10T06:53:06.751Z,99964.16
2023-06-10T06:55:33.777Z,99960.91
2023-06-10T06:58:04.906Z,99961.31
2023-06-10T07:00:33.428Z,99962.78
2023-06-10T07:03:00.569Z,99960.72
2023-06-10T07:05:28.403Z,99968.69
2023-06-10T07:07:57.071Z,99966.28
2023-06-10T07:10:26.286Z,99964.19
2023-06-10T07:12:53.904Z,99960.41
2023-06-10T07:15:21.093Z,99961.66
2023-06-10T07:17:48.339Z,99963.19
2023-06-10T07:20:16.093Z,99951.56
2023-06-10T07:22:43.638Z,99962.34
2023-06-10T07:25:11.018Z,99972.09
2023-06-10T07:27:40.302Z,99967.13
2023-06-10T07:30:09.495Z,99974.88
2023-06-10T07:32:36.543Z,99964.84
2023-06-10T07:35:03.831Z,99961.22
2023-06-10T07:37:30.854Z,99956.22
2023-06-10T07:39:58.046Z,99952.41
2023-06-10T07:42:25.089Z,99958.50
2023-06-10T07:44:52.064Z,99959.25
2023-06-10T07:47:19.754Z,99954.09
2023-06-10T07:49:47.768Z,99954.69
2023-06-10T07:52:14.726Z,99948.13
2023-06-10T07:54:41.681Z,99949.41
2023-06-10T07:57:08.710Z,99947.81
2023-06-10T07:59:35.784Z,99950.41
2023-06-10T08:02:02.857Z,99952.50
2023-06-10T08:04:32.006Z,99945.25
2023-06-10T08:06:59.154Z,99952.78
2023-06-10T08:09:26.132Z,99951.06
2023-06-10T08:11:53.214Z,99955.25
2023-06-10T08:14:20.294Z,99946.59
2023-06-10T08:16:47.289Z,99937.13
2023-06-10T08:19:14.376Z,99951.03
2023-06-10T08:21:41.399Z,99933.31
2023-06-10T08:24:09.018Z,99930.03
2023-06-10T08:26:37.258Z,99941.16
2023-06-10T08:29:04.222Z,99924.91
2023-06-10T08:31:31.240Z,99929.22
2023-06-10T08:33:58.146Z,99924.41
2023-06-10T08:36:25.080Z,99924.38
2023-06-10T08:38:52.004Z,99930.53
2023-06-10T08:41:21.701Z,99929.63
2023-06-10T08:44:05.538Z,99917.06
2023-06-10T08:46:34.029Z,99919.03
2023-06-10T08:49:06.345Z,99928.97
2023-06-10T08:51:36.595Z,99920.25
2023-06-10T08:54:13.097Z,99909.88
2023-06-10T08:56:41.561Z,99916.34
2023-06-10T08:59:10.202Z,99926.06
2023-06-10T09:01:38.059Z,99907.28
2023-06-10T09:04:06.988Z,99910.72
2023-06-10T09:06:35.219Z,99919.19
2023-06-10T09:09:04.338Z,99911.19
2023-06-10T09:11:33.004Z,99905.66
2023-06-10T09:14:01.073Z,99904.44
2023-06-10T09:16:28.116Z,99904.97
2023-06-10T09:18:56.147Z,99896.28
2023-06-10T09:21:29.049Z,99898.97
2023-06-10T09:23:56.424Z,99897.72
2023-06-10T09:26:30.891Z,99888.09
2023-06-10T09:29:06.608Z,99888.38
2023-06-10T09:31:37.337Z,99893.19
2023-06-10T09:34:12.984Z,99883.16
2023-06-10T09:36:41.217Z,99880.09
2023-06-10T09:39:19.530Z,99880.09
2023-06-10T09:41:47.580Z,99887.19
2023-06-10T09:44:21.074Z,99882.47
2023-06-10T09:46:55.753Z,99877.84
2023-06-10T09:49:22.745Z,99884.09
2023-06-10T09:51:56.944Z,99887.72
2023-06-10T09:54:24.311Z,99882.91
2023-06-10T09:56:55.294Z,99874.81
2023-06-10T09:59:33.164Z,99879.09
2023-06-10T10:02:01.729Z,99878.97
2023-06-10T10:04:30.642Z,99872.53
2023-06-10T10:06:57.714Z,99864.22
2023-06-10T10:09:24.669Z,99860.22
2023-06-10T10:11:54.289Z,99859.75
2023-06-10T10:14:22.183Z,99870.41
2023-06-10T10:16:50.765Z,99872.28
2023-06-10T10:19:24.921Z,99857.38
2023-06-10T10:22:06.265Z,99851.19
2023-06-10T10:24:40.346Z,99842.22
2023-06-10T10:27:19.350Z,99836.09
2023-06-10T10:29:53.506Z,99850.00
2023-06-10T10:32:46.223Z,99843.38
2023-06-10T10:35:19.249Z,99845.47
2023-06-10T10:37:47.641Z,99828.59
2023-06-10T10:40:15.972Z,99831.44
2023-06-10T10:42:43.826Z,99827.50
2023-06-10T10:45:12.028Z,99825.69
2023-06-10T10:47:40.552Z,99836.47
2023-06-10T10:50:19.705Z,99827.06
2023-06-10T10:53:00.952Z,99824.72
2023-06-10T10:55:29.015Z,99821.31
2023-06-10T10:57:57.294Z,99819.84
2023-06-10T11:00:38.649Z,99823.16
2023-06-10T11:03:10.774Z,99811.25
2023-06-10T11:05:50.086Z,99807.75
2023-06-10T11:08:43.701Z,99815.00
2023-06-10T11:11:29.185Z,99811.44
2023-06-10T11:14:09.796Z,99793.41
2023-06-10T11:16:44.851Z,99789.09
2023-06-10T11:19:40.004Z,99791.44
2023-06-10T11:22:09.505Z,99784.44
2023-06-10T11:24:38.619Z,99775.94
2023-06-10T11:27:24.832Z,99782.22
2023-06-10T11:30:06.973Z,99785.03
2023-06-10T11:32:36.145Z,99789.81
2023-06-10T11:35:08.814Z,99782.50
2023-06-10T11:37:36.251Z,99776.81
2023-06-10T11:40:04.236Z,99791.22
2023-06-10T11:42:31.565Z,99769.97
2023-06-10T11:44:59.066Z,99769.00
2023-06-10T11:47:27.870Z,99767.78
2023-06-10T11:49:58.642Z,99773.44
2023-06-10T11:52:34.546Z,99766.81
2023-06-10T11:55:01.955Z,99772.56
2023-06-10T11:57:28.991Z,99767.97
2023-06-10T11:59:57.024Z,99776.22
2023-06-10T12:02:24.149Z,99767.41
2023-06-10T12:04:51.345Z,99769.06
2023-06-10T12:07:23.926Z,99765.88
2023-06-10T12:10:08.921Z,99772.75
2023-06-10T12:12:46.469Z,99766.16
2023-06-10T12:15:26.509Z,99750.38
2023-06-10T12:17:53.577Z,99769.78
2023-06-10T12:20:35.147Z,99765.91
2023-06-10T12:23:10.713Z,99769.72
2023-06-10T12:25:40.963Z,99763.41
2023-06-10T12:28:12.170Z,99768.31
2023-06-10T12:30:40.664Z,99760.91
2023-06-10T12:33:20.710Z,99761.63
2023-06-10T12:35:52.999Z,99769.00
2023-06-10T12:38:31.471Z,99760.59
2023-06-10T12:41:07.637Z,99760.81
2023-06-10T12:43:35.483Z,99747.34
2023-06-10T12:46:13.086Z,99746.28
2023-06-10T12:48:52.893Z,99748.13
2023-06-10T12:51:20.555Z,99762.44
2023-06-10T12:53:47.466Z,99736.84
2023-06-10T12:56:14.521Z,99746.28
2023-06-10T12:58:41.434Z,99739.88
2023-06-10T13:01:08.377Z,99754.81
2023-06-10T13:03:35.366Z,99745.03
2023-06-10T13:06:02.398Z,99745.94
2023-06-10T13:08:29.406Z,99747.41
2023-06-10T13:10:56.416Z,99742.78
2023-06-10T13:13:23.414Z,99745.25
2023-06-10T13:15:51.280Z,99740.22
2023-06-10T13:18:20.065Z,99736.63
2023-06-10T13:20:47.060Z,99739.16
2023-06-10T13:23:14.642Z,99744.97
2023-06-10T13:25:41.923Z,99734.28
2023-06-10T13:28:09.254Z,99717.84
2023-06-10T13:30:36.229Z,99730.47
2023-06-10T13:33:03.610Z,99716.72
2023-06-10T13:35:30.780Z,99728.28
2023-06-10T13:37:57.714Z,99723.75
2023-06-10T13:40:24.718Z,99722.72
2023-06-10T13:42:53.757Z,99715.88
2023-06-10T13:45:20.962Z,99709.72
2023-06-10T13:47:49.095Z,99711.25
2023-06-10T13:50:16.265Z,99717.34
2023-06-10T13:52:43.299Z,99715.69
2023-06-10T13:55:10.804Z,99710.78
2023-06-10T13:57:38.041Z,99710.84
2023-06-10T14:00:06.706Z,99711.16
2023-06-10T14:02:33.775Z,99707.25
2023-06-10T14:05:02.641Z,99701.00
2023-06-10T14:07:29.886Z,99701.09
2023-06-10T14:09:57.209Z,99706.63
2023-06-10T14:12:24.334Z,99704.03
2023-06-10T14:14:51.397Z,99696.94
2023-06-10T14:17:18.378Z,99690.44
2023-06-10T14:19:45.528Z,99686.25
2023-06-10T14:22:12.485Z,99700.50
2023-06-10T14:24:39.470Z,99685.06
2023-06-10T14:27:08.004Z,99689.78
2023-06-10T14:29:35.012Z,99691.75
2023-06-10T14:32:02.179Z,99685.66
2023-06-10T14:34:30.898Z,99680.34
2023-06-10T14:36:57.866Z,99686.66
2023-06-10T14:39:24.823Z,99684.28
2023-06-10T14:41:53.712Z,99683.00
2023-06-10T14:44:21.756Z,99673.69
2023-06-10T14:46:49.121Z,99679.44
2023-06-10T14:49:16.488Z,99668.69
2023-06-10T14:51:43.475Z,99676.56
2023-06-10T14:54:10.531Z,99672.47
2023-06-10T14:56:37.494Z,99663.34
2023-06-10T14:59:04.553Z,99671.88
2023-06-10T15:01:31.619Z,99669.44
2023-06-10T15:03:59.076Z,99666.84
2023-06-10T15:06:26.132Z,99669.31
2023-06-10T15:08:53.084Z,99662.50
2023-06-10T15:11:20.099Z,99670.13
2023-06-10T15:13:47.017Z,99671.50
2023-06-10T15:16:14.431Z,99663.06
2023-06-10T15:18:41.465Z,99653.03
2023-06-10T15:21:08.475Z,99659.28
2023-06-10T15:23:35.609Z,99653.94
2023-06-10T15:26:02.618Z,99657.59
2023-06-10T15:28:29.592Z,99651.66
2023-06-10T15:30:56.668Z,99658.44
2023-06-10T15:33:23.601Z,99656.19
2023-06-10T15:35:50.843Z,99644.81
2023-06-10T15:38:17.860Z,99646.59
2023-06-10T15:40:44.888Z,99652.41
2023-06-10T15:43:11.883Z,99649.19
2023-06-10T15:45:39.003Z,99644.66
2023-06-10T15:48:06.496Z,99628.84
2023-06-10T15:50:34.644Z,99639.44
2023-06-10T15:53:01.687Z,99630.88
2023-06-10T15:55:30.576Z,99615.56
2023-06-10T15:58:01.616Z,99624.13
2023-06-10T16:00:28.657Z,99621.94
2023-06-10T16:02:55.641Z,99619.66
2023-06-10T16:05:22.809Z,99613.72
2023-06-10T16:07:49.768Z,99617.75
2023-06-10T16:10:16.744Z,99614.81
2023-06-10T16:12:43.694Z,99619.16
2023-06-10T16:15:11.310Z,99618.28
2023-06-10T16:17:39.076Z,99629.81
2023-06-10T16:20:07.705Z,99620.56
2023-06-10T16:22:34.628Z,99616.91
2023-06-10T16:25:01.722Z,99613.66
2023-06-10T16:27:29.800Z,99629.75
2023-06-10T16:29:56.863Z,99620.59
2023-06-10T16:32:23.959Z,99622.78
2023-06-10T16:34:50.921Z,99624.69
2023-06-10T16:37:18.079Z,99621.13
2023-06-10T16:39:45.309Z,99623.50
2023-06-10T16:42:12.503Z,99626.34
2023-06-10T16:44:39.682Z,99629.63
2023-06-10T16:47:07.542Z,99628.91
2023-06-10T16:49:37.446Z,99630.72
2023-06-10T16:52:06.351Z,99628.66
2023-06-10T16:54:35.280Z,99628.31
2023-06-10T16:57:03.365Z,99631.28
2023-06-10T16:59:30.396Z,99631.22
2023-06-10T17:01:57.561Z,99631.28
2023-06-10T17:04:25.287Z,99647.34
2023-06-10T17:06:52.398Z,99641.59
2023-06-10T17:09:19.485Z,99638.69
2023-06-10T17:11:46.446Z,99642.31
2023-06-10T17:14:13.630Z,99644.50
2023-06-10T17:16:40.900Z,99642.31
2023-06-10T17:19:07.992Z,99652.22
2023-06-10T17:21:34.932Z,99653.47
2023-06-10T17:24:04.418Z,99663.81
2023-06-10T17:26:31.398Z,99656.28
2023-06-10T17:28:58.392Z,99660.78
2023-06-10T17:31:25.494Z,99660.13
2023-06-10T17:33:54.512Z,99661.28
2023-06-10T17:36:21.439Z,99668.06
2023-06-10T17:38:48.374Z,99664.38
2023-06-10T17:41:15.425Z,99669.19
2023-06-10T17:43:45.174Z,99661.41
2023-06-10T17:46:12.505Z,99663.97
2023-06-10T17:48:39.461Z,99662.91
2023-06-10T17:51:06.421Z,99664.16
2023-06-10T17:53:33.426Z,99667.50
2023-06-10T17:56:02.197Z,99659.66
2023-06-10T17:58:29.459Z,99661.09
2023-06-10T18:00:56.437Z,99664.19
2023-06-10T18:03:27.593Z,99664.69
2023-06-10T18:05:55.870Z,99670.03
2023-06-10T18:08:23.604Z,99666.97
2023-06-10T18:10:50.841Z,99668.47
2023-06-10T18:13:21.113Z,99679.66
2023-06-10T18:15:48.128Z,99685.94
2023-06-10T18:18:15.316Z,99676.47
2023-06-10T18:20:42.309Z,99679.59
2023-06-10T18:23:11.314Z,99685.66
2023-06-10T18:25:38.233Z,99696.06
2023-06-10T18:28:05.205Z,99698.66
2023-06-10T18:30:32.237Z,99692.72
2023-06-10T18:32:59.365Z,99690.81
2023-06-10T18:35:26.387Z,99697.53
2023-06-10T18:37:53.331Z,99709.06
2023-06-10T18:40:20.507Z,99714.81
2023-06-10T18:42:47.468Z,99732.09
2023-06-10T18:45:14.492Z,99742.13
2023-06-10T18:47:56.993Z,99747.50
2023-06-10T18:50:25.850Z,99753.66
2023-06-10T18:52:53.068Z,99756.59
2023-06-10T18:55:20.276Z,99757.63
2023-06-10T18:57:47.252Z,99763.25
2023-06-10T19:00:15.183Z,99775.00
2023-06-10T19:02:42.251Z,99776.06
2023-06-10T19:05:13.629Z,99781.59
2023-06-10T19:07:41.145Z,99785.81
2023-06-10T19:10:08.889Z,99784.44
2023-06-10T19:12:35.917Z,99790.19
2023-06-10T19:15:04.264Z,99795.78
2023-06-10T19:17:31.339Z,99800.75
2023-06-10T19:19:58.429Z,99803.28
2023-06-10T19:22:25.481Z,99804.75
2023-06-10T19:25:06.948Z,99808.63
2023-06-10T19:27:34.983Z,99812.94
2023-06-10T19:30:02.642Z,99822.53
2023-06-10T19:32:30.021Z,99833.97
2023-06-10T19:34:57.049Z,99837.91
2023-06-10T19:37:24.027Z,99840.47
2023-06-10T19:39:51.155Z,99841.53
2023-06-10T19:42:18.144Z,99836.75
2023-06-10T19:44:45.300Z,99845.84
2023-06-10T19:47:12.331Z,99853.38
2023-06-10T19:49:39.379Z,99851.63
2023-06-10T19:52:09.658Z,99845.50
2023-06-10T19:54:37.316Z,99848.44
2023-06-10T19:57:05.039Z,99851.16
2023-06-10T19:59:33.047Z,99854.63
2023-06-10T20:02:00.417Z,99851.28
2023-06-10T20:04:27.605Z,99858.69
2023-06-10T20:06:55.012Z,99866.69
2023-06-10T20:09:22.302Z,99862.31
2023-06-10T20:11:49.729Z,99865.25
2023-06-10T20:14:16.750Z,99866.75
2023-06-10T20:16:44.719Z,99878.03
2023-06-10T20:19:11.870Z,99877.69
2023-06-10T20:21:39.140Z,99885.06
2023-06-10T20:24:08.686Z,99882.63
2023-06-10T20:26:36.612Z,99885.34
2023-06-10T20:29:04.072Z,99896.91
2023-06-10T20:31:31.197Z,99898.91
2023-06-10T20:33:58.210Z,99905.09
2023-06-10T20:36:25.887Z,99899.31
2023-06-10T20:38:53.130Z,99907.50
2023-06-10T20:41:22.475Z,99912.19
2023-06-10T20:43:49.654Z,99917.47
2023-06-10T20:46:16.800Z,99910.91
2023-06-10T20:48:43.975Z,99919.28
2023-06-10T20:51:11.137Z,99919.22
2023-06-10T20:53:38.870Z,99925.69
2023-06-10T20:56:05.862Z,99931.84
2023-06-10T20:58:34.309Z,99929.78
2023-06-10T21:01:01.908Z,99931.56
2023-06-10T21:03:29.322Z,99933.56
2023-06-10T21:05:56.756Z,99932.16
2023-06-10T21:08:26.060Z,99929.47
2023-06-10T21:10:55.025Z,99934.69
2023-06-10T21:13:22.136Z,99931.97
2023-06-10T21:15:49.305Z,99937.16
2023-06-10T21:18:16.409Z,99938.97
2023-06-10T21:20:43.343Z,99943.00
2023-06-10T21:23:11.020Z,99947.25
2023-06-10T21:25:37.973Z,99953.50
2023-06-10T21:28:05.136Z,99948.06
2023-06-10T21:30:32.079Z,99949.22
2023-06-10T21:32:59.126Z,99953.91
2023-06-10T21:35:26.058Z,99954.44
2023-06-10T21:37:52.988Z,99965.19
2023-06-10T21:40:20.579Z,99957.47
2023-06-10T21:42:47.527Z,99956.91
2023-06-10T21:45:14.630Z,99969.47
2023-06-10T21:47:41.925Z,99970.28
2023-06-10T21:50:09.991Z,99976.06
2023-06-10T21:52:36.930Z,99985.38
2023-06-10T21:55:04.363Z,99982.06
2023-06-10T21:57:31.394Z,99981.34
2023-06-10T21:59:58.541Z,99978.69
2023-06-10T22:02:27.915Z,99985.97
2023-06-10T22:04:55.423Z,99986.00
2023-06-10T22:07:22.419Z,99986.31
2023-06-10T22:09:50.434Z,99988.13
2023-06-10T22:12:17.982Z,99981.78
2023-06-10T22:14:45.550Z,99985.72
2023-06-10T22:17:13.321Z,99986.75
2023-06-10T22:19:42.353Z,99987.31
2023-06-10T22:22:09.924Z,99994.81
2023-06-10T22:24:37.414Z,99995.28
2023-06-10T22:27:04.913Z,99998.16
2023-06-10T22:29:31.906Z,99991.25
2023-06-10T22:31:59.209Z,99994.66
2023-06-10T22:34:26.196Z,100000.69
2023-06-10T22:36:53.240Z,99992.03
2023-06-10T22:39:20.406Z,99991.75
2023-06-10T22:41:47.396Z,99995.19
2023-06-10T22:44:14.897Z,99999.66
2023-06-10T22:46:41.871Z,100003.66
2023-06-10T22:49:11.417Z,100007.03
2023-06-10T22:51:38.946Z,100000.97
2023-06-10T22:54:06.386Z,100004.00
2023-06-10T22:56:34.380Z,99999.19
2023-06-10T22:59:03.528Z,99997.72
2023-06-10T23:01:31.137Z,100000.72
2023-06-10T23:03:58.572Z,100007.72
2023-06-10T23:06:25.532Z,100012.22
2023-06-10T23:08:52.550Z,100012.34
2023-06-10T23:11:20.206Z,100016.03
2023-06-10T23:13:47.263Z,100012.50
2023-06-10T23:16:14.311Z,100010.28
2023-06-10T23:18:42.771Z,100019.25
2023-06-10T23:21:10.776Z,100012.84
2023-06-10T23:23:38.131Z,100024.84
2023-06-10T23:26:06.280Z,100024.56
2023-06-10T23:28:33.296Z,100026.41
2023-06-10T23:31:00.423Z,100030.81
2023-06-10T23:33:28.655Z,100037.34
2023-06-10T23:35:55.947Z,100033.03
2023-06-10T23:38:22.989Z,100036.72
2023-06-10T23:40:50.196Z,100032.41
2023-06-10T23:43:17.156Z,100026.94
2023-06-10T23:45:44.118Z,100026.78
2023-06-10T23:48:11.410Z,100027.13
2023-06-10T23:50:39.361Z,100022.19
2023-06-10T23:53:07.029Z,100023.28
2023-06-10T23:55:35.765Z,100019.88
2023-06-10T23:58:03.731Z,100020.16
